Météo Nord-Pas-de-Calais   La météo au plus près de chez vous

Station météorologique

Observations météo à Embrun (05046)

05046001 873 m Dernier relevé à 08:48
18.1°C
Humidité 59 % Vent 12.2 km/h

Journée consultée

Vendredi 4 Septembre 2026

Synthèse de la journée

Périodes de référence en UTC

Température maximale

18.1°C

à 08:48

06h 06h

Température minimale

15.2°C

à 06:36

18h 18h

Rafale maximale

31 km/h

à 03:36

00h 00h

Précipitations

0 mm

Cumul quotidien

06h 06h

Ensoleillement

0h 21 mins

Durée quotidienne

00h 00h

Graphiques de la journée

Heure locale Réduire

Données détaillées

Relevés météo

Pas de 6 minutes Afficher les relevés infra-horaires
Relevés météo détaillés à Embrun pour le Vendredi 4 Septembre 2026
Heure Température °C Point de rosée °C Humidité % Vent moyen (raf.), km/h Précipitations mm Température à 10 cm °C Température à 20 cm °C Température à 50 cm °C Température à 100 cm °C Hauteur neige cm Ensoleillement min Rayonnement global W/m²
08:48 18.1 °C 8.4 °C 53 % 13 km/h (23 km/h) 0 mm0 mm 19.4 °C 20.4 °C 20 °C 19.4 °C 0 cm 6 min 85.6 W/m²
08:42 17.6 °C 8.4 °C 55 % 15 km/h (27 km/h) 0 mm0 mm 19.4 °C 20.4 °C 20 °C 19.4 °C 0 cm 6 min 79.8 W/m²
08:36 17 °C 8.2 °C 56 % 17 km/h (27 km/h) 0 mm0 mm 19.4 °C 20.4 °C 20 °C 19.4 °C 0 cm 6 min 73.8 W/m²
08:30 16.1 °C 7.8 °C 58 % 13 km/h (23 km/h) 0 mm0 mm 19.4 °C 20.5 °C 20 °C 19.4 °C 0 cm 3 min 37.6 W/m²
08:24 15.8 °C 7.5 °C 58 % 13 km/h (18 km/h) 0 mm0 mm 19.5 °C 20.5 °C 20 °C 19.4 °C 0 cm 0 min 7.8 W/m²
08:18 15.8 °C 7.3 °C 57 % 14 km/h (19 km/h) 0 mm0 mm 19.5 °C 20.5 °C 20 °C 19.4 °C 0 cm 0 min 7.3 W/m²
08:12 15.7 °C 7.5 °C 58 % 12 km/h (19 km/h) 0 mm0 mm 19.5 °C 20.5 °C 20 °C 19.4 °C 0 cm 0 min 6.7 W/m²
08:06 16 °C 7.7 °C 58 % 14 km/h (25 km/h) 0 mm0 mm 19.5 °C 20.5 °C 20 °C 19.4 °C 0 cm 0 min 6.3 W/m²
08:00 16.3 °C 7.5 °C 56 % 16 km/h (27 km/h) 0 mm0 mm 19.6 °C 20.6 °C 20 °C 19.4 °C 0 cm 0 min 6 W/m²
07:54 16.2 °C 7.7 °C 57 % 15 km/h (26 km/h) 0 mm0 mm 19.6 °C 20.6 °C 20 °C 19.4 °C 0 cm 0 min 5.5 W/m²
07:48 15.8 °C 7.8 °C 59 % 12 km/h (21 km/h) 0 mm0 mm 19.6 °C 20.6 °C 20 °C 19.4 °C 0 cm 0 min 4.6 W/m²
07:42 16 °C 7.7 °C 58 % 11 km/h (17 km/h) 0 mm0 mm 19.6 °C 20.6 °C 20 °C 19.4 °C 0 cm 0 min 4.1 W/m²
07:36 16.4 °C 7.6 °C 56 % 11 km/h (21 km/h) 0 mm0 mm 19.7 °C 20.6 °C 20 °C 19.4 °C 0 cm 0 min 2.1 W/m²
07:30 16.7 °C 7.6 °C 55 % 15 km/h (26 km/h) 0 mm0 mm 19.7 °C 20.6 °C 20 °C 19.4 °C 0 cm 0 min 0 W/m²
07:24 16.7 °C 7.6 °C 55 % 16 km/h (26 km/h) 0 mm0 mm 19.7 °C 20.7 °C 20 °C 19.4 °C 0 cm 0 min 0 W/m²
07:18 16.2 °C 7.7 °C 57 % 13 km/h (22 km/h) 0 mm0 mm 19.8 °C 20.7 °C 20 °C 19.4 °C 0 cm 0 min 0 W/m²
07:12 15.4 °C 7.4 °C 59 % 11 km/h (17 km/h) 0 mm0 mm 19.8 °C 20.7 °C 20 °C 19.4 °C 0 cm 0 min 0 W/m²
07:06 15.6 °C 7.9 °C 60 % 11 km/h (18 km/h) 0 mm0 mm 19.8 °C 20.7 °C 20 °C 19.4 °C 0 cm 0 min 0 W/m²
07:00 16.3 °C 7.5 °C 56 % 13 km/h (19 km/h) 0 mm0 mm 19.8 °C 20.7 °C 20 °C 19.4 °C 0 cm 0 min 0 W/m²
06:54 16.4 °C 7.6 °C 56 % 12 km/h (19 km/h) 0 mm0 mm 19.9 °C 20.7 °C 20 °C 19.4 °C 0 cm 0 min 0 W/m²
06:48 15.5 °C 7.8 °C 60 % 11 km/h (18 km/h) 0 mm0 mm 19.9 °C 20.8 °C 20 °C 19.4 °C 0 cm 0 min 0 W/m²
06:42 15.4 °C 7.7 °C 60 % 10 km/h (16 km/h) 0 mm0 mm 19.9 °C 20.8 °C 20 °C 19.4 °C 0 cm 0 min 0 W/m²
06:36 15.2 °C 7.5 °C 60 % 9 km/h (17 km/h) 0 mm0 mm 19.9 °C 20.8 °C 20 °C 19.4 °C 0 cm 0 min 0 W/m²
06:30 15.5 °C 7.5 °C 59 % 10 km/h (18 km/h) 0 mm0 mm 20 °C 20.8 °C 20 °C 19.4 °C 0 cm 0 min 0 W/m²
06:24 15.5 °C 7.5 °C 59 % 7 km/h (18 km/h) 0 mm0 mm 20 °C 20.8 °C 20 °C 19.4 °C 0 cm 0 min 0 W/m²
06:18 16.1 °C 7.6 °C 57 % 8 km/h (15 km/h) 0 mm0 mm 20 °C 20.9 °C 20 °C 19.4 °C 0 cm 0 min 0 W/m²
06:12 16.5 °C 7.4 °C 55 % 11 km/h (18 km/h) 0 mm0 mm 20 °C 20.9 °C 20 °C 19.4 °C 0 cm 0 min 0 W/m²
06:06 16.9 °C 7.5 °C 54 % 12 km/h (22 km/h) 0 mm0 mm 20.1 °C 20.9 °C 20 °C 19.4 °C 0 cm 0 min 0 W/m²
06:00 17.3 °C 7.3 °C 52 % 12 km/h (22 km/h) 0 mm0 mm 20.1 °C 20.9 °C 20 °C 19.4 °C 0 cm 0 min 0 W/m²
05:54 17.4 °C 7.4 °C 52 % 14 km/h (24 km/h) 0 mm0 mm 20.2 °C 20.9 °C 20 °C 19.4 °C 0 cm 0 min 0 W/m²
05:48 17.4 °C 7.7 °C 53 % 16 km/h (28 km/h) 0 mm0 mm 20.2 °C 20.9 °C 20 °C 19.4 °C 0 cm 0 min 0 W/m²
05:42 17.5 °C 7.5 °C 52 % 15 km/h (28 km/h) 0 mm0 mm 20.2 °C 21 °C 20 °C 19.4 °C 0 cm 0 min 0 W/m²
05:36 17.1 °C 7.4 °C 53 % 12 km/h (24 km/h) 0 mm0 mm 20.2 °C 21 °C 20 °C 19.4 °C 0 cm 0 min 0 W/m²
05:30 17.4 °C 7.4 °C 52 % 14 km/h (22 km/h) 0 mm0 mm 20.3 °C 21 °C 20 °C 19.4 °C 0 cm 0 min 0 W/m²
05:24 17.7 °C 7.4 °C 51 % 14 km/h (21 km/h) 0 mm0 mm 20.3 °C 21 °C 20 °C 19.4 °C 0 cm 0 min 0 W/m²
05:18 17.6 °C 7.3 °C 51 % 16 km/h (27 km/h) 0 mm0 mm 20.3 °C 21 °C 20 °C 19.4 °C 0 cm 0 min 0 W/m²
05:12 17.7 °C 7.7 °C 52 % 17 km/h (30 km/h) 0 mm0 mm 20.3 °C 21 °C 20 °C 19.4 °C 0 cm 0 min 0 W/m²
05:06 17.6 °C 7.6 °C 52 % 14 km/h (25 km/h) 0 mm0 mm 20.4 °C 21.1 °C 20 °C 19.4 °C 0 cm 0 min 0 W/m²
05:00 17.6 °C 7.6 °C 52 % 13 km/h (24 km/h) 0 mm0 mm 20.4 °C 21.1 °C 20 °C 19.4 °C 0 cm 0 min 0 W/m²
04:54 17.7 °C 7.7 °C 52 % 13 km/h (25 km/h) 0 mm0 mm 20.4 °C 21.1 °C 20 °C 19.4 °C 0 cm 0 min 0 W/m²
04:48 17.7 °C 7.7 °C 52 % 13 km/h (25 km/h) 0 mm0 mm 20.5 °C 21.1 °C 20 °C 19.4 °C 0 cm 0 min 0 W/m²
04:42 17.8 °C 7.5 °C 51 % 12 km/h (21 km/h) 0 mm0 mm 20.5 °C 21.1 °C 20 °C 19.4 °C 0 cm 0 min 0 W/m²
04:36 17.7 °C 7.7 °C 52 % 15 km/h (23 km/h) 0 mm0 mm 20.5 °C 21.1 °C 20 °C 19.4 °C 0 cm 0 min 0 W/m²
04:30 17.7 °C 7.7 °C 52 % 14 km/h (23 km/h) 0 mm0 mm 20.6 °C 21.2 °C 20 °C 19.4 °C 0 cm 0 min 0 W/m²
04:24 17.7 °C 7.7 °C 52 % 15 km/h (22 km/h) 0 mm0 mm 20.6 °C 21.2 °C 19.9 °C 19.4 °C 0 cm 0 min 0 W/m²
04:18 17.6 °C 7.6 °C 52 % 15 km/h (23 km/h) 0 mm0 mm 20.6 °C 21.2 °C 20 °C 19.4 °C 0 cm 0 min 0 W/m²
04:12 17.9 °C 7.6 °C 51 % 15 km/h (23 km/h) 0 mm0 mm 20.7 °C 21.2 °C 19.9 °C 19.4 °C 0 cm 0 min 0 W/m²
04:06 18.2 °C 7.9 °C 51 % 15 km/h (28 km/h) 0 mm0 mm 20.7 °C 21.2 °C 19.9 °C 19.4 °C 0 cm 0 min 0 W/m²
04:00 18.1 °C 8.1 °C 52 % 18 km/h (30 km/h) 0 mm0 mm 20.7 °C 21.2 °C 19.9 °C 19.4 °C 0 cm 0 min 0 W/m²
03:54 18.1 °C 8.1 °C 52 % 19 km/h (30 km/h) 0 mm0 mm 20.8 °C 21.3 °C 19.9 °C 19.4 °C 0 cm 0 min 0 W/m²
03:48 18.2 °C 7.9 °C 51 % 18 km/h (30 km/h) 0 mm0 mm 20.8 °C 21.3 °C 19.9 °C 19.4 °C 0 cm 0 min 0 W/m²
03:42 18.1 °C 8.1 °C 52 % 20 km/h (31 km/h) 0 mm0 mm 20.8 °C 21.3 °C 19.9 °C 19.4 °C 0 cm 0 min 0 W/m²
03:36 18.1 °C 8.1 °C 52 % 19 km/h (31 km/h) 0 mm0 mm 20.9 °C 21.3 °C 19.9 °C 19.4 °C 0 cm 0 min 0 W/m²
03:30 17.4 °C 8.3 °C 55 % 14 km/h (25 km/h) 0 mm0 mm 20.9 °C 21.3 °C 19.9 °C 19.4 °C 0 cm 0 min 0 W/m²
03:24 17 °C 8.2 °C 56 % 14 km/h (22 km/h) 0 mm0 mm 20.9 °C 21.3 °C 19.9 °C 19.4 °C 0 cm 0 min 0 W/m²
03:18 16.9 °C 8.1 °C 56 % 13 km/h (22 km/h) 0 mm0 mm 20.9 °C 21.3 °C 19.9 °C 19.4 °C 0 cm 0 min 0 W/m²
03:12 16.7 °C 8.1 °C 57 % 12 km/h (16 km/h) 0 mm0 mm 21 °C 21.3 °C 19.9 °C 19.4 °C 0 cm 0 min 0 W/m²
03:06 16.8 °C 8.2 °C 57 % 12 km/h (17 km/h) 0 mm0 mm 21 °C 21.4 °C 19.9 °C 19.4 °C 0 cm 0 min 0 W/m²
03:00 17 °C 8.2 °C 56 % 13 km/h (19 km/h) 0 mm0 mm 21.1 °C 21.4 °C 19.9 °C 19.4 °C 0 cm 0 min 0 W/m²
02:54 17.3 °C 8.4 °C 56 % 13 km/h (23 km/h) 0 mm0 mm 21.1 °C 21.4 °C 19.9 °C 19.4 °C 0 cm 0 min 0 W/m²
02:48 17.9 °C 8.5 °C 54 % 15 km/h (23 km/h) 0 mm0 mm 21.1 °C 21.4 °C 19.9 °C 19.4 °C 0 cm 0 min 0 W/m²
02:42 18 °C 8.3 °C 53 % 14 km/h (21 km/h) 0 mm0 mm 21.2 °C 21.4 °C 19.9 °C 19.4 °C 0 cm 0 min 0 W/m²
02:36 17.9 °C 8.5 °C 54 % 14 km/h (23 km/h) 0 mm0 mm 21.2 °C 21.4 °C 19.9 °C 19.4 °C 0 cm 0 min 0 W/m²
02:30 18 °C 8.5 °C 54 % 15 km/h (23 km/h) 0 mm0 mm 21.2 °C 21.4 °C 19.9 °C 19.4 °C 0 cm 0 min 0 W/m²
02:24 17.9 °C 8.7 °C 55 % 14 km/h (20 km/h) 0 mm0 mm 21.3 °C 21.5 °C 19.9 °C 19.4 °C 0 cm 0 min 0 W/m²
02:18 17.3 °C 8.7 °C 57 % 13 km/h (19 km/h) 0 mm0 mm 21.3 °C 21.5 °C 19.9 °C 19.4 °C 0 cm 0 min 0 W/m²
02:12 16.4 °C 8.9 °C 61 % 10 km/h (15 km/h) 0 mm0 mm 21.3 °C 21.5 °C 19.9 °C 19.4 °C 0 cm 0 min 0 W/m²
02:06 16.5 °C 8.9 °C 61 % 8 km/h (12 km/h) 0 mm0 mm 21.4 °C 21.5 °C 19.9 °C 19.4 °C 0 cm 0 min 0 W/m²
02:00 16.6 °C 9 °C 61 % 7 km/h (11 km/h) 0 mm0 mm 21.4 °C 21.5 °C 19.9 °C 19.4 °C 0 cm 0 min 0 W/m²
01:54 16.8 °C 9 °C 60 % 5 km/h (10 km/h) 0 mm0 mm 21.4 °C 21.5 °C 19.9 °C 19.4 °C 0 cm 0 min 0 W/m²
01:48 17.4 °C 9 °C 58 % 4 km/h (10 km/h) 0 mm0 mm 21.5 °C 21.5 °C 19.9 °C 19.4 °C 0 cm 0 min 0 W/m²
01:42 17.9 °C 8.7 °C 55 % 9 km/h (17 km/h) 0 mm0 mm 21.5 °C 21.5 °C 19.9 °C 19.4 °C 0 cm 0 min 0 W/m²
01:36 18.3 °C 8.5 °C 53 % 11 km/h (17 km/h) 0 mm0 mm 21.5 °C 21.6 °C 19.9 °C 19.4 °C 0 cm 0 min 0 W/m²
01:30 18.2 °C 8.7 °C 54 % 11 km/h (16 km/h) 0 mm0 mm 21.6 °C 21.6 °C 19.9 °C 19.4 °C 0 cm 0 min 0 W/m²
01:24 17.9 °C 9 °C 56 % 11 km/h (16 km/h) 0 mm0 mm 21.6 °C 21.6 °C 19.9 °C 19.4 °C 0 cm 0 min 0 W/m²
01:18 17.2 °C 9.1 °C 59 % 9 km/h (15 km/h) 0 mm0 mm 21.6 °C 21.6 °C 19.9 °C 19.4 °C 0 cm 0 min 0 W/m²
01:12 16.8 °C 9.5 °C 62 % 8 km/h (12 km/h) 0 mm0 mm 21.7 °C 21.6 °C 19.8 °C 19.4 °C 0 cm 0 min 0 W/m²
01:06 16.6 °C 9.3 °C 62 % 8 km/h (12 km/h) 0 mm0 mm 21.7 °C 21.6 °C 19.8 °C 19.4 °C 0 cm 0 min 0 W/m²
01:00 17.2 °C 9.6 °C 61 % 8 km/h (11 km/h) 0 mm0 mm 21.7 °C 21.6 °C 19.8 °C 19.4 °C 0 cm 0 min 0 W/m²
00:54 18.1 °C 9.2 °C 56 % 9 km/h (13 km/h) 0 mm0 mm 21.8 °C 21.6 °C 19.8 °C 19.4 °C 0 cm 0 min 0 W/m²
00:48 18.4 °C 9.2 °C 55 % 9 km/h (12 km/h) 0 mm0 mm 21.8 °C 21.6 °C 19.8 °C 19.4 °C 0 cm 0 min 0 W/m²
00:42 17.7 °C 9.3 °C 58 % 8 km/h (11 km/h) 0 mm0 mm 21.9 °C 21.6 °C 19.8 °C 19.4 °C 0 cm 0 min 0 W/m²
00:36 17.4 °C 9.6 °C 60 % 6 km/h (9 km/h) 0 mm0 mm 21.9 °C 21.6 °C 19.8 °C 19.4 °C 0 cm 0 min 0 W/m²
00:30 17.3 °C 9.5 °C 60 % 2 km/h (7 km/h) 0 mm0 mm 21.9 °C 21.6 °C 19.8 °C 19.4 °C 0 cm 0 min 0 W/m²
00:24 17.4 °C 9.3 °C 59 % 0 km/h (3 km/h) 0 mm0 mm 22 °C 21.6 °C 19.8 °C 19.4 °C 0 cm 0 min 0 W/m²
00:18 17.7 °C 9.3 °C 58 % 0 km/h (4 km/h) 0 mm0 mm 22 °C 21.7 °C 19.8 °C 19.4 °C 0 cm 0 min 0 W/m²
00:12 17.9 °C 9.3 °C 57 % 3 km/h (5 km/h) 0 mm0 mm 22 °C 21.7 °C 19.8 °C 19.4 °C 0 cm 0 min 0 W/m²
00:06 18 °C 9.3 °C 57 % 2 km/h (5 km/h) 0 mm0 mm 22.1 °C 21.7 °C 19.8 °C 19.4 °C 0 cm 0 min 0 W/m²
00:00 18.2 °C 9.8 °C 58 % 4 km/h (10 km/h) 0 mm0 mm 22.1 °C 21.7 °C 19.8 °C 19.4 °C 0 cm 0 min 0 W/m²

Données via Météo-France

Relevés météo à Embrun

Cette page rassemble les observations de la station de Embrun : température, humidité, vent, précipitations et pression atmosphérique. Les graphiques facilitent le suivi de la journée, tandis que le tableau donne accès aux mesures horaires et infra-horaires disponibles.

Pour replacer ces mesures dans leur contexte, consultez la climatologie de Embrun ainsi que ses normales et records. Retrouvez aussi la carte des observations météo en temps réel.